createdAt,value
2019-04-10T00:01:27.824Z,99.90
2019-04-10T00:03:33.651Z,99.90
2019-04-10T00:05:33.914Z,99.90
2019-04-10T00:07:35.460Z,99.90
2019-04-10T00:09:36.851Z,99.90
2019-04-10T00:11:38.271Z,99.90
2019-04-10T00:13:39.714Z,99.90
2019-04-10T00:15:42.279Z,99.90
2019-04-10T00:17:43.841Z,99.90
2019-04-10T00:19:45.650Z,99.90
2019-04-10T00:21:47.353Z,99.90
2019-04-10T00:23:49.229Z,99.90
2019-04-10T00:25:50.870Z,99.90
2019-04-10T00:27:52.743Z,99.90
2019-04-10T00:29:54.424Z,99.90
2019-04-10T00:31:56.379Z,99.90
2019-04-10T00:33:58.899Z,99.90
2019-04-10T00:36:01.529Z,99.90
2019-04-10T00:38:03.083Z,99.90
2019-04-10T00:40:05.227Z,99.90
2019-04-10T00:42:06.706Z,99.90
2019-04-10T00:44:08.098Z,99.90
2019-04-10T00:46:10.267Z,99.90
2019-04-10T00:48:11.983Z,99.90
2019-04-10T00:50:14.631Z,99.90
2019-04-10T00:52:16.371Z,99.90
2019-04-10T00:54:18.173Z,99.90
2019-04-10T00:56:20.705Z,99.90
2019-04-10T00:58:22.514Z,99.90
2019-04-10T01:00:24.064Z,99.90
2019-04-10T01:02:25.415Z,99.90
2019-04-10T01:04:26.778Z,99.90
2019-04-10T01:06:28.315Z,99.90
2019-04-10T01:08:30.699Z,99.90
2019-04-10T01:10:32.457Z,99.90
2019-04-10T01:12:34.256Z,99.90
2019-04-10T01:14:35.963Z,99.90
2019-04-10T01:16:37.719Z,99.90
2019-04-10T01:18:39.542Z,99.90
2019-04-10T01:20:41.791Z,99.90
2019-04-10T01:22:43.513Z,99.90
2019-04-10T01:24:45.978Z,99.90
2019-04-10T01:26:47.620Z,99.90
2019-04-10T01:28:49.236Z,99.90
2019-04-10T01:30:50.779Z,99.90
2019-04-10T01:32:52.375Z,99.90
2019-04-10T01:34:53.959Z,99.90
2019-04-10T01:36:56.404Z,99.90
2019-04-10T01:38:57.922Z,99.90
2019-04-10T01:40:59.436Z,99.90
2019-04-10T01:43:08.253Z,99.90
2019-04-10T01:45:05.264Z,99.90
2019-04-10T01:47:06.817Z,99.90
2019-04-10T01:49:09.193Z,99.90
2019-04-10T01:51:10.821Z,99.90
2019-04-10T01:53:13.333Z,99.90
2019-04-10T01:55:23.871Z,99.90
2019-04-10T01:57:18.171Z,99.90
2019-04-10T01:59:21.568Z,99.90
2019-04-10T02:01:28.332Z,99.90
2019-04-10T02:03:29.906Z,99.90
2019-04-10T02:05:32.458Z,99.90
2019-04-10T02:07:34.105Z,99.90
2019-04-10T02:09:35.526Z,99.90
2019-04-10T02:11:37.659Z,99.90
2019-04-10T02:13:39.347Z,99.90
2019-04-10T02:15:41.838Z,99.90
2019-04-10T02:17:44.421Z,99.90
2019-04-10T02:19:46.093Z,99.90
2019-04-10T02:21:47.791Z,99.90
2019-04-10T02:23:50.253Z,99.90
2019-04-10T02:25:52.758Z,99.90
2019-04-10T02:27:54.491Z,99.90
2019-04-10T02:29:55.883Z,99.90
2019-04-10T02:31:57.553Z,99.90
2019-04-10T02:33:59.925Z,99.90
2019-04-10T02:36:03.703Z,99.90
2019-04-10T02:38:22.181Z,99.90
2019-04-10T02:40:10.102Z,99.90
2019-04-10T02:42:12.271Z,99.90
2019-04-10T02:44:14.106Z,99.90
2019-04-10T02:46:15.685Z,99.90
2019-04-10T02:48:17.213Z,99.90
2019-04-10T02:50:18.909Z,99.90
2019-04-10T02:52:20.434Z,99.90
2019-04-10T02:54:21.812Z,99.90
2019-04-10T02:56:25.229Z,99.90
2019-04-10T02:58:27.111Z,99.90
2019-04-10T03:00:30.192Z,99.90
2019-04-10T03:02:33.497Z,99.90
2019-04-10T03:04:35.266Z,99.90
2019-04-10T03:06:37.529Z,99.90
2019-04-10T03:08:54.929Z,99.90
2019-04-10T03:10:49.717Z,99.90
2019-04-10T03:12:46.500Z,99.90
2019-04-10T03:14:49.841Z,99.90
2019-04-10T03:16:51.923Z,99.90
2019-04-10T03:18:53.305Z,99.90
2019-04-10T03:20:54.725Z,99.90
2019-04-10T03:22:56.872Z,99.90
2019-04-10T03:24:58.425Z,99.90
2019-04-10T03:26:59.786Z,99.90
2019-04-10T03:29:01.154Z,99.90
2019-04-10T03:31:04.856Z,99.90
2019-04-10T03:33:19.136Z,99.90
2019-04-10T03:35:18.762Z,99.90
2019-04-10T03:37:20.292Z,99.90
2019-04-10T03:39:21.731Z,99.90
2019-04-10T03:41:24.059Z,99.90
2019-04-10T03:43:25.834Z,99.90
2019-04-10T03:45:28.497Z,99.90
2019-04-10T03:47:30.001Z,99.90
2019-04-10T03:49:31.432Z,99.90
2019-04-10T03:51:32.800Z,99.90
2019-04-10T03:53:34.194Z,99.90
2019-04-10T03:55:36.783Z,99.90
2019-04-10T03:57:38.564Z,99.90
2019-04-10T03:59:41.433Z,99.90
2019-04-10T04:01:43.350Z,99.90
2019-04-10T04:03:44.809Z,99.90
2019-04-10T04:05:46.732Z,99.90
2019-04-10T04:07:48.504Z,99.90
2019-04-10T04:09:49.918Z,99.90
2019-04-10T04:11:51.278Z,99.90
2019-04-10T04:13:52.711Z,99.90
2019-04-10T04:15:54.693Z,99.90
2019-04-10T04:17:56.876Z,99.90
2019-04-10T04:19:58.795Z,99.90
2019-04-10T04:22:00.620Z,99.90
2019-04-10T04:24:02.081Z,99.90
2019-04-10T04:26:03.455Z,99.90
2019-04-10T04:28:04.826Z,99.90
2019-04-10T04:30:07.039Z,99.90
2019-04-10T04:32:08.928Z,99.90
2019-04-10T04:34:10.364Z,99.90
2019-04-10T04:36:12.313Z,99.90
2019-04-10T04:38:13.755Z,99.90
2019-04-10T04:40:15.376Z,99.90
2019-04-10T04:42:17.043Z,99.90
2019-04-10T04:44:18.565Z,99.90
2019-04-10T04:46:20.537Z,99.90
2019-04-10T04:48:22.080Z,99.90
2019-04-10T04:50:24.701Z,99.90
2019-04-10T04:52:26.211Z,99.90
2019-04-10T04:54:27.584Z,99.90
2019-04-10T04:56:29.058Z,99.90
2019-04-10T04:58:30.549Z,99.90
2019-04-10T05:00:32.063Z,99.90
2019-04-10T05:02:34.623Z,99.90
2019-04-10T05:04:37.322Z,99.90
2019-04-10T05:06:39.574Z,99.90
2019-04-10T05:08:41.979Z,99.90
2019-04-10T05:10:43.929Z,99.90
2019-04-10T05:12:45.289Z,99.90
2019-04-10T05:14:46.661Z,99.90
2019-04-10T05:16:48.062Z,99.90
2019-04-10T05:18:50.101Z,99.90
2019-04-10T05:20:52.655Z,99.90
2019-04-10T05:22:55.220Z,99.90
2019-04-10T05:24:56.703Z,99.90
2019-04-10T05:26:59.209Z,99.90
2019-04-10T05:29:00.690Z,99.90
2019-04-10T05:31:02.996Z,99.90
2019-04-10T05:33:04.614Z,99.90
2019-04-10T05:35:08.390Z,99.90
2019-04-10T05:37:09.558Z,99.90
2019-04-10T05:39:10.969Z,99.90
2019-04-10T05:41:13.267Z,99.90
2019-04-10T05:43:14.840Z,99.90
2019-04-10T05:45:17.035Z,99.90
2019-04-10T05:47:19.280Z,99.90
2019-04-10T05:49:20.789Z,99.90
2019-04-10T05:51:23.341Z,99.90
2019-04-10T05:53:24.792Z,99.90
2019-04-10T05:55:26.639Z,99.90
2019-04-10T05:57:28.793Z,99.90
2019-04-10T05:59:30.522Z,99.90
2019-04-10T06:01:35.892Z,99.90
2019-04-10T06:03:35.223Z,99.90
2019-04-10T06:05:36.650Z,99.90
2019-04-10T06:07:38.157Z,99.90
2019-04-10T06:09:51.998Z,99.90
2019-04-10T06:11:44.530Z,99.90
2019-04-10T06:13:46.417Z,99.90
2019-04-10T06:15:47.787Z,99.90
2019-04-10T06:17:49.202Z,99.90
2019-04-10T06:19:51.057Z,99.90
2019-04-10T06:21:52.572Z,99.90
2019-04-10T06:23:54.006Z,99.90
2019-04-10T06:25:56.349Z,99.90
2019-04-10T06:27:58.910Z,99.90
2019-04-10T06:30:01.747Z,99.90
2019-04-10T06:32:03.349Z,99.90
2019-04-10T06:34:04.730Z,99.90
2019-04-10T06:36:06.118Z,99.90
2019-04-10T06:38:07.638Z,99.90
2019-04-10T06:40:16.957Z,99.90
2019-04-10T06:42:12.688Z,99.90
2019-04-10T06:44:14.123Z,99.90
2019-04-10T06:46:16.647Z,99.90
2019-04-10T06:48:19.177Z,99.90
2019-04-10T06:50:21.082Z,99.90
2019-04-10T06:52:23.533Z,99.90
2019-04-10T06:54:25.059Z,99.90
2019-04-10T06:56:27.155Z,99.90
2019-04-10T06:58:28.693Z,99.90
2019-04-10T07:00:30.668Z,99.90
2019-04-10T07:02:33.869Z,99.90
2019-04-10T07:04:44.085Z,99.90
2019-04-10T07:06:49.787Z,99.90
2019-04-10T07:08:45.366Z,99.90
2019-04-10T07:10:54.233Z,99.90
2019-04-10T07:12:48.854Z,99.90
2019-04-10T07:14:51.554Z,99.90
2019-04-10T07:16:53.498Z,99.90
2019-04-10T07:18:54.902Z,99.90
2019-04-10T07:20:59.604Z,99.90
2019-04-10T07:22:59.633Z,99.90
2019-04-10T07:25:01.070Z,99.90
2019-04-10T07:27:06.296Z,99.90
2019-04-10T07:29:08.819Z,99.90
2019-04-10T07:31:11.542Z,99.90
2019-04-10T07:33:16.584Z,99.90
2019-04-10T07:35:19.590Z,99.90
2019-04-10T07:37:21.670Z,99.90
2019-04-10T07:39:26.037Z,99.90
2019-04-10T07:41:26.691Z,99.90
2019-04-10T07:43:29.509Z,99.90
2019-04-10T07:45:31.343Z,99.90
2019-04-10T07:47:32.812Z,99.90
2019-04-10T07:49:34.980Z,99.90
2019-04-10T07:51:37.539Z,99.90
2019-04-10T07:53:39.425Z,99.90
2019-04-10T07:55:42.076Z,99.90
2019-04-10T07:57:47.277Z,99.90
2019-04-10T07:59:47.594Z,99.90
2019-04-10T08:01:49.508Z,99.90
2019-04-10T08:03:52.470Z,99.90
2019-04-10T08:05:54.757Z,99.80
2019-04-10T08:07:57.426Z,97.40
2019-04-10T08:09:59.253Z,97.20
2019-04-10T08:12:00.862Z,97.10
2019-04-10T08:14:03.448Z,97.30
2019-04-10T08:16:06.310Z,96.20
2019-04-10T08:18:07.821Z,95.90
2019-04-10T08:20:09.995Z,97.00
2019-04-10T08:22:12.322Z,97.30
2019-04-10T08:24:13.796Z,97.20
2019-04-10T08:26:16.233Z,95.10
2019-04-10T08:28:17.889Z,92.50
2019-04-10T08:30:19.617Z,94.40
2019-04-10T08:32:21.612Z,92.20
2019-04-10T08:34:23.734Z,91.50
2019-04-10T08:36:25.577Z,90.10
2019-04-10T08:38:28.022Z,89.90
2019-04-10T08:40:30.013Z,85.80
2019-04-10T08:42:31.534Z,89.70
2019-04-10T08:44:33.140Z,89.70
2019-04-10T08:46:35.660Z,88.80
2019-04-10T08:48:37.214Z,82.90
2019-04-10T08:50:38.645Z,87.80
2019-04-10T08:52:40.982Z,83.20
2019-04-10T08:54:42.593Z,79.90
2019-04-10T08:56:44.945Z,78.50
2019-04-10T08:58:48.236Z,84.00
2019-04-10T09:00:51.467Z,81.30
2019-04-10T09:02:52.917Z,80.60
2019-04-10T09:04:55.246Z,80.20
2019-04-10T09:06:57.888Z,79.20
2019-04-10T09:08:59.692Z,83.30
2019-04-10T09:11:01.078Z,81.20
2019-04-10T09:13:02.682Z,79.70
2019-04-10T09:15:05.556Z,80.30
2019-04-10T09:17:07.070Z,77.60
2019-04-10T09:19:08.497Z,76.40
2019-04-10T09:21:11.175Z,74.30
2019-04-10T09:23:23.511Z,81.50
2019-04-10T09:25:17.487Z,73.10
2019-04-10T09:27:19.265Z,75.50
2019-04-10T09:29:23.043Z,74.40
2019-04-10T09:31:23.959Z,77.30
2019-04-10T09:33:28.212Z,71.90
2019-04-10T09:35:28.805Z,67.50
2019-04-10T09:37:31.156Z,66.60
2019-04-10T09:39:33.716Z,66.10
2019-04-10T09:41:36.198Z,65.70
2019-04-10T09:43:37.987Z,66.30
2019-04-10T09:45:39.521Z,68.90
2019-04-10T09:47:41.726Z,67.00
2019-04-10T09:49:46.237Z,67.20
2019-04-10T09:51:46.526Z,67.00
2019-04-10T09:53:48.931Z,65.90
2019-04-10T09:55:50.371Z,63.30
2019-04-10T09:57:51.897Z,66.50
2019-04-10T09:59:54.520Z,63.90
2019-04-10T10:01:56.343Z,66.10
2019-04-10T10:03:57.834Z,67.50
2019-04-10T10:06:00.328Z,63.40
2019-04-10T10:08:02.537Z,62.60
2019-04-10T10:10:06.589Z,61.90
2019-04-10T10:12:08.128Z,64.60
2019-04-10T10:14:10.390Z,63.10
2019-04-10T10:16:11.904Z,63.30
2019-04-10T10:18:13.279Z,58.80
2019-04-10T10:20:15.416Z,58.10
2019-04-10T10:22:16.940Z,55.40
2019-04-10T10:24:18.459Z,55.90
2019-04-10T10:26:20.350Z,52.70
2019-04-10T10:28:22.795Z,53.70
2019-04-10T10:30:25.136Z,56.30
2019-04-10T10:32:26.739Z,56.80
2019-04-10T10:34:28.325Z,57.00
2019-04-10T10:36:36.857Z,57.90
2019-04-10T10:38:33.077Z,59.50
2019-04-10T10:40:34.479Z,56.00
2019-04-10T10:42:38.519Z,55.00
2019-04-10T10:44:40.373Z,53.00
2019-04-10T10:46:41.954Z,52.80
2019-04-10T10:48:44.157Z,56.80
2019-04-10T10:50:45.727Z,61.00
2019-04-10T10:52:47.938Z,56.10
2019-04-10T10:54:49.480Z,56.20
2019-04-10T10:56:51.015Z,56.30
2019-04-10T10:58:53.172Z,56.40
2019-04-10T11:00:55.723Z,55.90
2019-04-10T11:02:58.103Z,54.00
2019-04-10T11:05:02.390Z,54.20
2019-04-10T11:07:03.194Z,53.00
2019-04-10T11:09:08.346Z,56.00
2019-04-10T11:11:10.276Z,55.40
2019-04-10T11:13:12.725Z,53.60
2019-04-10T11:15:14.189Z,52.40
2019-04-10T11:17:16.059Z,54.20
2019-04-10T11:19:19.722Z,54.70
2019-04-10T11:21:22.723Z,53.40
2019-04-10T11:23:24.533Z,54.50
2019-04-10T11:25:26.160Z,53.80
2019-04-10T11:27:28.080Z,51.00
2019-04-10T11:29:31.448Z,51.10
2019-04-10T11:31:33.340Z,49.30
2019-04-10T11:33:34.942Z,49.70
2019-04-10T11:35:37.329Z,51.60
2019-04-10T11:37:44.429Z,50.30
2019-04-10T11:39:43.969Z,50.00
2019-04-10T11:41:46.381Z,50.10
2019-04-10T11:43:50.133Z,52.30
2019-04-10T11:45:54.558Z,53.80
2019-04-10T11:47:56.474Z,49.70
2019-04-10T11:49:59.375Z,51.20
2019-04-10T11:52:01.906Z,50.30
2019-04-10T11:54:07.782Z,51.10
2019-04-10T11:56:08.749Z,52.10
2019-04-10T11:58:15.547Z,54.00
2019-04-10T12:00:19.847Z,50.10
2019-04-10T12:02:21.891Z,48.60
2019-04-10T12:04:23.459Z,47.60
2019-04-10T12:06:25.512Z,50.30
2019-04-10T12:08:50.393Z,50.90
2019-04-10T12:12:35.442Z,48.90
2019-04-10T12:14:37.384Z,47.50
2019-04-10T12:16:39.008Z,46.40
2019-04-10T12:18:40.591Z,45.60
2019-04-10T12:20:43.122Z,46.10
2019-04-10T12:22:44.612Z,47.00
2019-04-10T12:24:48.879Z,44.50
2019-04-10T12:26:49.897Z,46.90
2019-04-10T12:28:51.917Z,46.40
2019-04-10T12:30:53.431Z,49.40
2019-04-10T12:32:54.911Z,47.60
2019-04-10T12:34:56.394Z,48.10
2019-04-10T12:36:58.749Z,49.60
2019-04-10T12:39:00.361Z,48.00
2019-04-10T12:41:01.832Z,48.10
2019-04-10T12:43:03.539Z,51.40
2019-04-10T12:45:06.319Z,48.40
2019-04-10T12:47:07.967Z,47.70
2019-04-10T12:49:09.595Z,45.50
2019-04-10T12:51:11.873Z,46.80
2019-04-10T12:53:13.558Z,46.80
2019-04-10T12:55:16.417Z,48.80
2019-04-10T12:57:19.660Z,46.70
2019-04-10T12:59:21.523Z,42.60
2019-04-10T13:01:22.989Z,45.10
2019-04-10T13:03:25.101Z,47.80
2019-04-10T13:05:27.340Z,47.70
2019-04-10T13:07:29.682Z,48.20
2019-04-10T13:09:31.750Z,46.00
2019-04-10T13:11:34.292Z,47.50
2019-04-10T13:13:35.888Z,49.40
2019-04-10T13:15:37.310Z,47.60
2019-04-10T13:17:38.727Z,48.70
2019-04-10T13:19:40.962Z,45.60
2019-04-10T13:21:42.494Z,45.10
2019-04-10T13:23:44.756Z,46.00
2019-04-10T13:25:55.061Z,46.50
2019-04-10T13:27:50.727Z,45.60
2019-04-10T13:29:52.275Z,47.00
2019-04-10T13:31:53.787Z,45.60
2019-04-10T13:33:55.202Z,45.00
2019-04-10T13:35:57.605Z,45.10
2019-04-10T13:37:59.065Z,43.90
2019-04-10T13:40:01.654Z,44.40
2019-04-10T13:42:05.025Z,42.90
2019-04-10T13:44:06.624Z,44.30
2019-04-10T13:46:08.758Z,45.50
2019-04-10T13:48:10.236Z,48.10
2019-04-10T13:50:12.718Z,47.70
2019-04-10T13:52:14.195Z,48.10
2019-04-10T13:54:16.516Z,46.60
2019-04-10T13:56:19.119Z,46.20
2019-04-10T13:58:21.330Z,47.10
2019-04-10T14:00:33.728Z,43.10
2019-04-10T14:02:38.089Z,43.40
2019-04-10T14:04:39.465Z,44.10
2019-04-10T14:06:41.464Z,43.20
2019-04-10T14:09:03.131Z,42.70
2019-04-10T14:10:46.812Z,41.10
2019-04-10T14:12:49.334Z,43.60
2019-04-10T14:14:51.059Z,44.50
2019-04-10T14:16:53.051Z,47.00
2019-04-10T14:18:54.482Z,44.70
2019-04-10T14:20:55.860Z,45.40
2019-04-10T14:23:11.073Z,47.00
2019-04-10T14:25:19.972Z,44.10
2019-04-10T14:27:24.415Z,44.20
2019-04-10T14:29:26.883Z,44.70
2019-04-10T14:31:30.332Z,44.60
2019-04-10T14:33:32.471Z,43.90
2019-04-10T14:35:34.015Z,43.60
2019-04-10T14:37:35.725Z,43.70
2019-04-10T14:39:37.660Z,44.70
2019-04-10T14:41:39.978Z,44.80
2019-04-10T14:43:43.011Z,45.20
2019-04-10T14:45:45.837Z,47.40
2019-04-10T14:47:47.649Z,47.10
2019-04-10T14:49:49.288Z,44.60
2019-04-10T14:51:50.806Z,45.10
2019-04-10T14:53:52.256Z,45.10
2019-04-10T14:55:53.632Z,41.60
2019-04-10T14:57:55.027Z,45.20
2019-04-10T14:59:56.407Z,41.70
2019-04-10T15:01:58.041Z,42.50
2019-04-10T15:04:00.554Z,42.80
2019-04-10T15:06:02.711Z,42.40
2019-04-10T15:08:04.368Z,41.90
2019-04-10T15:10:07.989Z,41.70
2019-04-10T15:12:10.072Z,42.10
2019-04-10T15:14:13.184Z,44.60
2019-04-10T15:16:14.851Z,45.30
2019-04-10T15:18:16.223Z,43.40
2019-04-10T15:20:17.602Z,43.00
2019-04-10T15:22:20.014Z,42.60
2019-04-10T15:24:21.688Z,42.40
2019-04-10T15:26:23.977Z,45.40
2019-04-10T15:28:25.725Z,44.30
2019-04-10T15:30:27.085Z,41.40
2019-04-10T15:32:29.427Z,41.90
2019-04-10T15:34:30.886Z,42.00
2019-04-10T15:36:32.245Z,41.90
2019-04-10T15:38:33.905Z,43.30
2019-04-10T15:40:36.446Z,43.10
2019-04-10T15:42:38.791Z,42.30
2019-04-10T15:44:40.813Z,41.40
2019-04-10T15:46:43.310Z,41.80
2019-04-10T15:48:46.052Z,42.30
2019-04-10T15:50:47.707Z,42.30
2019-04-10T15:52:49.334Z,40.30
2019-04-10T15:54:53.316Z,41.40
2019-04-10T15:56:54.334Z,43.20
2019-04-10T15:58:56.870Z,44.30
2019-04-10T16:00:59.430Z,43.80
2019-04-10T16:03:00.943Z,43.50
2019-04-10T16:05:05.132Z,44.90
2019-04-10T16:07:06.526Z,44.30
2019-04-10T16:09:07.900Z,42.80
2019-04-10T16:11:11.859Z,42.30
2019-04-10T16:13:16.247Z,42.60
2019-04-10T16:15:18.127Z,43.50
2019-04-10T16:17:33.525Z,44.40
2019-04-10T16:19:54.225Z,44.50
2019-04-10T16:21:56.346Z,45.20
2019-04-10T16:24:00.500Z,46.10
2019-04-10T16:26:02.908Z,46.90
2019-04-10T16:28:04.491Z,45.80
2019-04-10T16:30:08.353Z,47.00
2019-04-10T16:32:10.693Z,47.00
2019-04-10T16:34:12.147Z,47.60
2019-04-10T16:36:13.552Z,47.40
2019-04-10T16:38:14.949Z,47.20
2019-04-10T16:40:16.885Z,46.90
2019-04-10T16:42:18.968Z,47.30
2019-04-10T16:44:21.354Z,47.40
2019-04-10T16:46:23.810Z,47.10
2019-04-10T16:48:26.424Z,47.70
2019-04-10T16:50:28.069Z,47.50
2019-04-10T16:52:29.446Z,47.50
2019-04-10T16:54:31.316Z,48.20
2019-04-10T16:56:33.798Z,47.90
2019-04-10T16:58:35.331Z,47.80
2019-04-10T17:00:37.730Z,46.90
2019-04-10T17:02:40.141Z,47.40
2019-04-10T17:04:41.741Z,48.10
2019-04-10T17:06:44.195Z,48.10
2019-04-10T17:08:45.972Z,47.90
2019-04-10T17:10:48.303Z,48.40
2019-04-10T17:12:49.825Z,48.60
2019-04-10T17:14:51.331Z,48.70
2019-04-10T17:16:53.653Z,48.80
2019-04-10T17:18:55.250Z,49.10
2019-04-10T17:20:57.239Z,49.20
2019-04-10T17:23:00.301Z,49.20
2019-04-10T17:25:04.152Z,49.20
2019-04-10T17:27:06.413Z,49.40
2019-04-10T17:29:09.234Z,49.80
2019-04-10T17:31:11.128Z,50.20
2019-04-10T17:33:13.187Z,50.10
2019-04-10T17:35:15.722Z,49.70
2019-04-10T17:37:17.913Z,49.80
2019-04-10T17:39:20.011Z,50.10
2019-04-10T17:41:21.830Z,49.40
2019-04-10T17:43:23.467Z,49.90
2019-04-10T17:45:25.816Z,50.30
2019-04-10T17:47:29.168Z,50.50
2019-04-10T17:49:31.800Z,50.30
2019-04-10T17:51:34.236Z,50.50
2019-04-10T17:53:35.827Z,50.90
2019-04-10T17:55:37.699Z,51.60
2019-04-10T17:57:43.080Z,50.90
2019-04-10T17:59:42.840Z,51.20
2019-04-10T18:01:45.198Z,51.60
2019-04-10T18:03:52.140Z,52.20
2019-04-10T18:05:50.923Z,52.00
2019-04-10T18:07:52.452Z,52.10
2019-04-10T18:09:53.948Z,52.40
2019-04-10T18:11:56.334Z,52.10
2019-04-10T18:13:58.639Z,51.80
2019-04-10T18:16:00.238Z,51.80
2019-04-10T18:18:01.611Z,52.70
2019-04-10T18:20:04.613Z,53.20
2019-04-10T18:22:06.801Z,52.70
2019-04-10T18:24:08.273Z,53.10
2019-04-10T18:26:10.700Z,53.30
2019-04-10T18:28:12.155Z,53.20
2019-04-10T18:30:14.149Z,53.50
2019-04-10T18:32:15.874Z,53.20
2019-04-10T18:34:17.339Z,53.90
2019-04-10T18:36:19.554Z,53.00
2019-04-10T18:38:21.578Z,53.80
2019-04-10T18:40:23.356Z,53.50
2019-04-10T18:42:24.809Z,53.10
2019-04-10T18:44:26.222Z,53.70
2019-04-10T18:46:27.628Z,53.60
2019-04-10T18:48:29.043Z,53.80
2019-04-10T18:50:30.431Z,54.20
2019-04-10T18:52:32.315Z,54.40
2019-04-10T18:54:34.038Z,54.40
2019-04-10T18:56:35.521Z,54.80
2019-04-10T18:58:38.782Z,55.00
2019-04-10T19:00:58.834Z,56.00
2019-04-10T19:03:03.332Z,55.90
2019-04-10T19:05:07.593Z,55.80
2019-04-10T19:07:09.191Z,56.10
2019-04-10T19:09:18.511Z,55.70
2019-04-10T19:11:21.110Z,55.80
2019-04-10T19:13:17.334Z,56.10
2019-04-10T19:15:18.695Z,56.90
2019-04-10T19:17:20.385Z,57.20
2019-04-10T19:19:21.806Z,56.90
2019-04-10T19:21:24.092Z,57.00
2019-04-10T19:23:25.555Z,57.50
2019-04-10T19:25:27.247Z,58.30
2019-04-10T19:27:28.556Z,58.40
2019-04-10T19:29:29.966Z,57.90
2019-04-10T19:31:35.463Z,58.40
2019-04-10T19:33:35.349Z,58.90
2019-04-10T19:35:37.281Z,59.60
2019-04-10T19:37:38.870Z,59.20
2019-04-10T19:39:40.514Z,59.80
2019-04-10T19:41:42.036Z,59.60
2019-04-10T19:43:43.469Z,59.10
2019-04-10T19:45:44.819Z,60.40
2019-04-10T19:47:46.432Z,59.80
2019-04-10T19:49:48.726Z,60.00
2019-04-10T19:51:50.860Z,60.50
2019-04-10T19:53:53.378Z,60.10
2019-04-10T19:55:55.938Z,60.40
2019-04-10T19:57:57.509Z,60.70
2019-04-10T19:59:59.949Z,61.70
2019-04-10T20:02:02.412Z,61.80
2019-04-10T20:04:04.038Z,61.80
2019-04-10T20:06:05.953Z,62.40
2019-04-10T20:08:07.705Z,62.50
2019-04-10T20:10:10.802Z,62.10
2019-04-10T20:12:12.815Z,62.50
2019-04-10T20:14:15.438Z,62.30
2019-04-10T20:16:17.639Z,62.80
2019-04-10T20:18:19.139Z,63.50
2019-04-10T20:20:21.405Z,62.70
2019-04-10T20:22:23.076Z,63.60
2019-04-10T20:24:25.050Z,63.60
2019-04-10T20:26:27.311Z,64.40
2019-04-10T20:28:28.909Z,64.50
2019-04-10T20:30:32.854Z,64.80
2019-04-10T20:32:34.351Z,65.00
2019-04-10T20:34:35.833Z,65.90
2019-04-10T20:36:38.877Z,65.80
2019-04-10T20:38:40.857Z,65.20
2019-04-10T20:40:42.348Z,65.40
2019-04-10T20:42:44.628Z,66.30
2019-04-10T20:44:47.066Z,69.10
2019-04-10T20:46:48.806Z,67.90
2019-04-10T20:48:50.856Z,67.30
2019-04-10T20:50:52.371Z,68.40
2019-04-10T20:52:53.790Z,68.40
2019-04-10T20:54:55.337Z,68.80
2019-04-10T20:56:57.069Z,69.00
2019-04-10T20:58:59.332Z,69.30
2019-04-10T21:01:01.014Z,70.60
2019-04-10T21:03:02.877Z,71.70
2019-04-10T21:05:08.004Z,72.20
2019-04-10T21:07:08.996Z,71.90
2019-04-10T21:09:11.738Z,71.30
2019-04-10T21:11:13.855Z,72.80
2019-04-10T21:13:15.378Z,73.60
2019-04-10T21:15:17.420Z,73.90
2019-04-10T21:17:18.902Z,75.80
2019-04-10T21:19:20.652Z,77.00
2019-04-10T21:21:22.272Z,75.80
2019-04-10T21:23:23.844Z,79.20
2019-04-10T21:25:25.409Z,80.40
2019-04-10T21:27:27.668Z,83.40
2019-04-10T21:29:46.509Z,83.20
2019-04-10T21:32:01.733Z,82.30
2019-04-10T21:34:23.076Z,83.80
2019-04-10T21:36:24.490Z,86.00
2019-04-10T21:38:25.895Z,86.50
2019-04-10T21:40:27.312Z,87.80
2019-04-10T21:42:29.707Z,90.60
2019-04-10T21:44:31.488Z,90.50
2019-04-10T21:46:32.986Z,92.40
2019-04-10T21:48:35.062Z,92.30
2019-04-10T21:50:37.616Z,93.10
2019-04-10T21:52:39.322Z,93.50
2019-04-10T21:54:49.586Z,95.20
2019-04-10T21:56:45.099Z,94.30
2019-04-10T21:58:46.632Z,94.90
2019-04-10T22:00:55.623Z,95.00
2019-04-10T22:02:56.975Z,95.40
2019-04-10T22:04:59.616Z,95.40
2019-04-10T22:07:20.340Z,96.30
2019-04-10T22:09:23.750Z,97.00
2019-04-10T22:11:25.529Z,96.90
2019-04-10T22:13:27.914Z,98.00
2019-04-10T22:15:41.479Z,98.40
2019-04-10T22:17:42.967Z,98.90
2019-04-10T22:19:45.237Z,97.70
2019-04-10T22:21:46.839Z,99.70
2019-04-10T22:23:49.038Z,97.50
2019-04-10T22:25:52.143Z,97.40
2019-04-10T22:27:54.270Z,97.90
2019-04-10T22:29:56.329Z,98.00
2019-04-10T22:31:57.850Z,99.00
2019-04-10T22:33:59.408Z,99.00
2019-04-10T22:36:00.783Z,98.60
2019-04-10T22:38:02.639Z,99.70
2019-04-10T22:40:04.971Z,99.90
2019-04-10T22:42:07.538Z,98.70
2019-04-10T22:44:09.741Z,99.30
2019-04-10T22:46:11.186Z,99.90
2019-04-10T22:48:12.574Z,99.90
2019-04-10T22:50:14.001Z,99.90
2019-04-10T22:52:15.521Z,99.90
2019-04-10T22:54:17.907Z,99.90
2019-04-10T22:56:19.402Z,99.90
2019-04-10T22:58:21.225Z,99.90
2019-04-10T23:00:24.626Z,99.90
2019-04-10T23:02:26.000Z,99.90
2019-04-10T23:04:28.559Z,99.90
2019-04-10T23:06:31.371Z,99.90
2019-04-10T23:08:33.692Z,99.90
2019-04-10T23:10:35.356Z,99.90
2019-04-10T23:12:49.704Z,99.90
2019-04-10T23:14:39.952Z,99.90
2019-04-10T23:16:41.368Z,99.90
2019-04-10T23:18:42.732Z,99.90
2019-04-10T23:20:44.107Z,99.90
2019-04-10T23:22:48.408Z,99.90
2019-04-10T23:24:48.850Z,99.90
2019-04-10T23:26:50.237Z,99.90
2019-04-10T23:28:51.763Z,99.90
2019-04-10T23:30:53.113Z,99.90
2019-04-10T23:32:55.438Z,99.90
2019-04-10T23:34:57.019Z,99.90
2019-04-10T23:36:58.403Z,99.90
2019-04-10T23:38:59.836Z,99.90
2019-04-10T23:41:01.257Z,99.90
2019-04-10T23:43:11.285Z,99.90
2019-04-10T23:45:07.191Z,99.90
2019-04-10T23:47:09.608Z,99.90
2019-04-10T23:49:11.193Z,99.90
2019-04-10T23:51:12.698Z,99.90
2019-04-10T23:53:14.170Z,99.90
2019-04-10T23:55:15.586Z,99.90
2019-04-10T23:57:16.993Z,99.90
2019-04-10T23:59:18.367Z,99.90
